createdAt,value
2022-08-30T00:00:38.627Z,54.50
2022-08-30T00:03:09.829Z,55.00
2022-08-30T00:05:39.695Z,56.00
2022-08-30T00:08:11.784Z,56.20
2022-08-30T00:10:42.990Z,56.00
2022-08-30T00:13:13.754Z,55.80
2022-08-30T00:15:43.873Z,56.00
2022-08-30T00:18:12.937Z,55.80
2022-08-30T00:20:41.560Z,55.80
2022-08-30T00:23:11.551Z,55.90
2022-08-30T00:25:40.990Z,55.90
2022-08-30T00:28:10.758Z,56.50
2022-08-30T00:30:40.593Z,58.30
2022-08-30T00:33:09.561Z,59.40
2022-08-30T00:35:40.044Z,59.80
2022-08-30T00:38:09.756Z,60.00
2022-08-30T00:40:44.354Z,60.40
2022-08-30T00:43:20.033Z,60.50
2022-08-30T00:45:49.258Z,60.00
2022-08-30T00:48:18.092Z,59.90
2022-08-30T00:50:51.141Z,59.60
2022-08-30T00:53:26.671Z,59.80
2022-08-30T00:56:00.450Z,58.40
2022-08-30T00:58:36.044Z,59.20
2022-08-30T01:01:08.293Z,58.90
2022-08-30T01:03:39.830Z,58.40
2022-08-30T01:06:09.206Z,58.30
2022-08-30T01:08:38.742Z,58.30
2022-08-30T01:11:10.012Z,57.80
2022-08-30T01:13:40.765Z,57.40
2022-08-30T01:16:10.359Z,57.10
2022-08-30T01:18:39.686Z,57.50
2022-08-30T01:21:19.848Z,58.20
2022-08-30T01:23:54.734Z,59.10
2022-08-30T01:26:24.371Z,59.00
2022-08-30T01:29:01.231Z,59.10
2022-08-30T01:31:30.182Z,59.10
2022-08-30T01:33:58.777Z,58.90
2022-08-30T01:36:27.888Z,58.50
2022-08-30T01:38:59.700Z,57.90
2022-08-30T01:41:32.807Z,58.40
2022-08-30T01:44:04.913Z,58.10
2022-08-30T01:46:37.661Z,56.80
2022-08-30T01:49:12.454Z,58.00
2022-08-30T01:51:41.569Z,57.20
2022-08-30T01:54:11.956Z,57.20
2022-08-30T01:56:40.865Z,57.20
2022-08-30T01:59:09.636Z,57.20
2022-08-30T02:01:40.051Z,57.20
2022-08-30T02:04:11.873Z,56.90
2022-08-30T02:06:41.320Z,56.60
2022-08-30T02:09:11.506Z,56.60
2022-08-30T02:11:41.154Z,56.60
2022-08-30T02:14:10.365Z,56.30
2022-08-30T02:16:39.875Z,56.60
2022-08-30T02:19:09.463Z,56.60
2022-08-30T02:21:41.853Z,56.50
2022-08-30T02:24:11.954Z,56.80
2022-08-30T02:26:40.560Z,56.60
2022-08-30T02:29:10.144Z,56.50
2022-08-30T02:31:39.289Z,56.60
2022-08-30T02:34:08.852Z,56.70
2022-08-30T02:36:39.590Z,57.50
2022-08-30T02:39:08.779Z,56.90
2022-08-30T02:41:39.184Z,56.90
2022-08-30T02:44:10.030Z,56.80
2022-08-30T02:46:39.676Z,57.00
2022-08-30T02:49:30.363Z,57.70
2022-08-30T02:51:58.379Z,57.10
2022-08-30T02:54:28.529Z,56.90
2022-08-30T02:56:58.454Z,57.20
2022-08-30T02:59:27.052Z,57.20
2022-08-30T03:01:56.139Z,57.20
2022-08-30T03:04:26.959Z,57.00
2022-08-30T03:06:56.516Z,57.00
2022-08-30T03:09:28.153Z,57.00
2022-08-30T03:11:58.089Z,56.60
2022-08-30T03:14:28.207Z,56.50
2022-08-30T03:16:57.138Z,57.10
2022-08-30T03:19:26.821Z,56.40
2022-08-30T03:21:55.493Z,56.40
2022-08-30T03:24:24.319Z,56.40
2022-08-30T03:26:53.517Z,56.00
2022-08-30T03:29:23.538Z,56.20
2022-08-30T03:31:53.889Z,56.10
2022-08-30T03:34:23.707Z,56.10
2022-08-30T03:36:54.099Z,56.00
2022-08-30T03:39:24.807Z,56.10
2022-08-30T03:41:53.945Z,56.10
2022-08-30T03:44:24.545Z,56.20
2022-08-30T03:46:53.690Z,56.10
2022-08-30T03:49:24.511Z,56.20
2022-08-30T03:51:53.203Z,56.00
2022-08-30T03:54:24.196Z,55.90
2022-08-30T03:56:53.685Z,55.80
2022-08-30T03:59:24.473Z,55.80
2022-08-30T04:01:53.292Z,55.90
2022-08-30T04:04:22.167Z,56.00
2022-08-30T04:06:50.937Z,55.90
2022-08-30T04:09:20.107Z,56.10
2022-08-30T04:11:49.191Z,56.20
2022-08-30T04:14:18.540Z,56.30
2022-08-30T04:16:48.585Z,56.40
2022-08-30T04:19:18.041Z,57.10
2022-08-30T04:21:47.126Z,57.20
2022-08-30T04:24:16.152Z,57.50
2022-08-30T04:26:44.985Z,57.50
2022-08-30T04:29:16.941Z,57.70
2022-08-30T04:31:46.956Z,58.00
2022-08-30T04:34:17.011Z,58.10
2022-08-30T04:36:48.331Z,58.10
2022-08-30T04:39:18.449Z,58.70
2022-08-30T04:41:47.326Z,59.20
2022-08-30T04:44:19.491Z,59.80
2022-08-30T04:46:48.824Z,59.50
2022-08-30T04:49:18.831Z,59.40
2022-08-30T04:51:47.581Z,59.80
2022-08-30T04:54:16.498Z,60.20
2022-08-30T04:56:45.193Z,59.50
2022-08-30T04:59:14.158Z,59.20
2022-08-30T05:01:45.527Z,59.60
2022-08-30T05:04:15.549Z,60.50
2022-08-30T05:06:45.804Z,61.10
2022-08-30T05:09:15.005Z,61.60
2022-08-30T05:11:44.165Z,61.40
2022-08-30T05:14:13.102Z,62.30
2022-08-30T05:16:42.586Z,62.30
2022-08-30T05:19:11.294Z,64.00
2022-08-30T05:21:41.521Z,64.30
2022-08-30T05:24:11.531Z,63.90
2022-08-30T05:26:40.905Z,62.70
2022-08-30T05:29:09.769Z,62.30
2022-08-30T05:31:38.693Z,64.20
2022-08-30T05:34:07.555Z,63.70
2022-08-30T05:36:39.077Z,64.40
2022-08-30T05:39:09.730Z,63.60
2022-08-30T05:41:40.980Z,63.20
2022-08-30T05:44:11.376Z,64.00
2022-08-30T05:46:45.682Z,64.40
2022-08-30T05:49:14.558Z,65.00
2022-08-30T05:51:43.690Z,64.10
2022-08-30T05:54:15.343Z,65.10
2022-08-30T05:56:47.262Z,65.90
2022-08-30T05:59:17.089Z,65.60
2022-08-30T06:01:48.169Z,64.80
2022-08-30T06:04:17.951Z,65.00
2022-08-30T06:06:46.809Z,65.60
2022-08-30T06:09:16.793Z,65.70
2022-08-30T06:11:48.475Z,65.70
2022-08-30T06:14:17.407Z,65.00
2022-08-30T06:16:46.665Z,64.60
2022-08-30T06:19:17.790Z,63.70
2022-08-30T06:21:50.599Z,64.80
2022-08-30T06:24:20.782Z,64.30
2022-08-30T06:26:55.056Z,64.20
2022-08-30T06:29:23.985Z,64.50
2022-08-30T06:31:52.810Z,64.80
2022-08-30T06:34:21.600Z,64.60
2022-08-30T06:36:50.308Z,65.10
2022-08-30T06:39:19.002Z,65.00
2022-08-30T06:41:47.803Z,64.90
2022-08-30T06:44:27.006Z,63.90
2022-08-30T06:46:56.107Z,62.50
2022-08-30T06:49:24.900Z,61.00
2022-08-30T06:51:55.068Z,61.00
2022-08-30T06:54:23.953Z,59.50
2022-08-30T06:56:58.655Z,59.30
2022-08-30T06:59:29.641Z,58.70
2022-08-30T07:01:58.532Z,58.30
2022-08-30T07:04:27.475Z,59.10
2022-08-30T07:06:56.505Z,58.80
2022-08-30T07:09:25.456Z,58.30
2022-08-30T07:11:54.862Z,59.00
2022-08-30T07:14:24.554Z,58.60
2022-08-30T07:16:54.509Z,59.10
2022-08-30T07:19:23.520Z,58.70
2022-08-30T07:21:52.410Z,59.40
2022-08-30T07:24:22.014Z,59.40
2022-08-30T07:26:52.517Z,59.30
2022-08-30T07:29:22.272Z,59.00
2022-08-30T07:31:50.950Z,59.80
2022-08-30T07:34:23.405Z,58.90
2022-08-30T07:36:54.684Z,59.60
2022-08-30T07:39:23.365Z,59.80
2022-08-30T07:41:52.049Z,59.60
2022-08-30T07:44:23.132Z,58.10
2022-08-30T07:46:53.881Z,57.90
2022-08-30T07:49:24.089Z,57.40
2022-08-30T07:51:52.721Z,57.10
2022-08-30T07:54:21.555Z,57.40
2022-08-30T07:56:50.898Z,57.20
2022-08-30T07:59:19.510Z,57.10
2022-08-30T08:01:48.221Z,57.40
2022-08-30T08:04:17.208Z,56.70
2022-08-30T08:06:47.298Z,56.40
2022-08-30T08:09:16.203Z,56.50
2022-08-30T08:11:45.295Z,56.80
2022-08-30T08:16:48.539Z,57.30
2022-08-30T08:19:17.570Z,57.20
2022-08-30T08:21:50.448Z,56.70
2022-08-30T08:24:29.205Z,56.50
2022-08-30T08:26:57.916Z,56.80
2022-08-30T08:29:27.157Z,56.10
2022-08-30T08:31:57.369Z,54.60
2022-08-30T08:34:25.999Z,55.40
2022-08-30T08:36:56.011Z,55.60
2022-08-30T08:39:24.866Z,55.10
2022-08-30T08:42:06.752Z,53.50
2022-08-30T08:44:54.522Z,54.00
2022-08-30T08:47:33.762Z,54.00
2022-08-30T08:50:07.033Z,54.40
2022-08-30T08:53:10.855Z,53.80
2022-08-30T08:55:51.520Z,54.60
2022-08-30T08:58:26.253Z,54.90
2022-08-30T09:00:57.888Z,55.60
2022-08-30T09:03:30.485Z,56.20
2022-08-30T09:06:10.962Z,57.10
2022-08-30T09:08:40.963Z,57.00
2022-08-30T09:11:16.798Z,57.00
2022-08-30T09:13:45.542Z,57.40
2022-08-30T09:16:47.981Z,57.10
2022-08-30T09:19:45.362Z,56.30
2022-08-30T09:22:33.661Z,55.70
2022-08-30T09:25:09.659Z,55.70
2022-08-30T09:27:41.603Z,55.60
2022-08-30T09:30:17.606Z,55.40
2022-08-30T09:32:55.865Z,55.00
2022-08-30T09:35:34.619Z,54.20
2022-08-30T09:38:09.125Z,53.60
2022-08-30T09:40:46.113Z,53.70
2022-08-30T09:43:25.684Z,54.30
2022-08-30T09:46:11.250Z,54.90
2022-08-30T09:48:47.464Z,55.60
2022-08-30T09:51:51.363Z,56.00
2022-08-30T09:54:33.557Z,55.80
2022-08-30T09:57:13.229Z,56.10
2022-08-30T09:59:51.438Z,56.10
2022-08-30T10:02:49.359Z,56.30
2022-08-30T10:05:30.853Z,56.60
2022-08-30T10:08:12.894Z,57.50
2022-08-30T10:10:56.081Z,57.20
2022-08-30T10:14:05.646Z,56.80
2022-08-30T10:16:48.912Z,55.40
2022-08-30T10:19:35.471Z,55.00
2022-08-30T10:22:13.433Z,54.10
2022-08-30T10:24:48.466Z,54.30
2022-08-30T10:27:23.878Z,53.70
2022-08-30T10:30:02.733Z,53.60
2022-08-30T10:32:39.627Z,55.00
2022-08-30T10:35:19.221Z,55.00
2022-08-30T10:37:54.812Z,54.50
2022-08-30T10:40:50.013Z,55.40
2022-08-30T10:43:31.792Z,55.40
2022-08-30T10:46:11.561Z,54.40
2022-08-30T10:48:47.341Z,55.10
2022-08-30T10:51:25.878Z,55.70
2022-08-30T10:54:02.724Z,55.80
2022-08-30T10:56:33.079Z,55.20
2022-08-30T10:59:05.523Z,56.00
2022-08-30T11:02:05.921Z,56.00
2022-08-30T11:05:18.588Z,56.10
2022-08-30T11:08:08.538Z,56.50
2022-08-30T11:11:05.062Z,56.80
2022-08-30T11:13:39.759Z,57.00
2022-08-30T11:16:15.492Z,55.70
2022-08-30T11:18:52.094Z,58.10
2022-08-30T11:21:28.171Z,56.40
2022-08-30T11:24:11.131Z,56.50
2022-08-30T11:27:02.971Z,56.60
2022-08-30T11:29:42.596Z,56.10
2022-08-30T11:32:39.000Z,55.30
2022-08-30T11:35:11.236Z,55.40
2022-08-30T11:37:44.534Z,55.10
2022-08-30T11:40:48.394Z,54.80
2022-08-30T11:43:56.195Z,53.80
2022-08-30T11:46:41.178Z,54.10
2022-08-30T11:49:54.068Z,54.70
2022-08-30T11:52:56.030Z,54.40
2022-08-30T11:55:53.617Z,53.70
2022-08-30T11:58:44.098Z,54.20
2022-08-30T12:01:42.353Z,53.60
2022-08-30T12:04:26.467Z,54.90
2022-08-30T12:07:00.580Z,55.40
2022-08-30T12:10:06.122Z,55.00
2022-08-30T12:12:56.277Z,55.10
2022-08-30T12:15:57.764Z,54.10
2022-08-30T12:18:32.969Z,54.50
2022-08-30T12:21:13.305Z,53.40
2022-08-30T12:23:53.156Z,53.30
2022-08-30T12:26:35.939Z,53.50
2022-08-30T12:29:16.253Z,54.60
2022-08-30T12:31:50.700Z,53.70
2022-08-30T12:34:26.753Z,54.00
2022-08-30T12:37:04.682Z,51.80
2022-08-30T12:39:38.126Z,51.50
2022-08-30T12:42:22.413Z,51.10
2022-08-30T12:44:55.667Z,51.80
2022-08-30T12:47:31.160Z,51.20
2022-08-30T12:50:02.075Z,51.50
2022-08-30T12:52:37.979Z,50.30
2022-08-30T12:55:19.223Z,51.10
2022-08-30T12:58:02.859Z,51.20
2022-08-30T13:00:34.720Z,51.40
2022-08-30T13:03:16.073Z,52.00
2022-08-30T13:05:48.746Z,53.20
2022-08-30T13:08:27.580Z,55.00
2022-08-30T13:11:05.773Z,55.40
2022-08-30T13:13:44.496Z,54.30
2022-08-30T13:16:29.490Z,54.10
2022-08-30T13:19:32.564Z,53.40
2022-08-30T13:22:02.832Z,53.20
2022-08-30T13:24:31.898Z,54.00
2022-08-30T13:27:09.731Z,54.00
2022-08-30T13:29:40.551Z,54.10
2022-08-30T13:32:10.770Z,55.00
2022-08-30T13:34:40.617Z,54.80
2022-08-30T13:40:05.841Z,55.30
2022-08-30T13:42:34.731Z,55.40
2022-08-30T13:45:41.024Z,55.40
2022-08-30T13:47:57.277Z,55.00
2022-08-30T13:50:25.855Z,56.10
2022-08-30T13:52:56.098Z,55.40
2022-08-30T13:55:25.007Z,53.80
2022-08-30T13:57:54.403Z,53.70
2022-08-30T14:00:26.321Z,53.20
2022-08-30T14:02:57.637Z,52.70
2022-08-30T14:05:50.199Z,52.60
2022-08-30T14:11:18.609Z,52.00
2022-08-30T14:16:41.771Z,53.00
2022-08-30T14:19:12.601Z,53.30
2022-08-30T14:21:41.920Z,53.40
2022-08-30T14:24:13.022Z,53.30
2022-08-30T14:26:47.657Z,53.00
2022-08-30T14:29:21.877Z,53.50
2022-08-30T14:31:51.866Z,53.90
2022-08-30T14:34:21.629Z,54.80
2022-08-30T14:36:50.242Z,54.80
2022-08-30T14:39:21.431Z,53.50
2022-08-30T14:41:54.214Z,53.10
2022-08-30T14:44:26.509Z,53.40
2022-08-30T14:46:57.767Z,52.80
2022-08-30T14:49:28.673Z,52.80
2022-08-30T14:51:57.778Z,52.20
2022-08-30T14:54:32.533Z,52.90
2022-08-30T14:57:01.664Z,53.40
2022-08-30T14:59:30.377Z,53.30
2022-08-30T15:02:00.410Z,53.50
2022-08-30T15:04:30.226Z,53.70
2022-08-30T15:06:59.820Z,54.00
2022-08-30T15:09:28.654Z,54.00
2022-08-30T15:12:01.290Z,54.30
2022-08-30T15:14:32.866Z,53.10
2022-08-30T15:17:03.923Z,52.60
2022-08-30T15:19:33.737Z,53.10
2022-08-30T15:22:05.681Z,54.30
2022-08-30T15:24:35.118Z,53.90
2022-08-30T15:27:06.126Z,53.20
2022-08-30T15:29:35.294Z,53.20
2022-08-30T15:32:06.297Z,53.00
2022-08-30T15:34:36.387Z,53.60
2022-08-30T15:37:06.325Z,53.40
2022-08-30T15:39:36.995Z,53.20
2022-08-30T15:42:06.165Z,53.10
2022-08-30T15:44:35.478Z,53.70
2022-08-30T15:47:06.075Z,54.70
2022-08-30T15:49:34.822Z,55.30
2022-08-30T15:52:07.913Z,55.50
2022-08-30T15:54:37.270Z,56.20
2022-08-30T15:57:06.486Z,56.40
2022-08-30T15:59:35.217Z,55.70
2022-08-30T16:02:06.085Z,55.00
2022-08-30T16:04:34.848Z,55.70
2022-08-30T16:07:03.469Z,57.00
2022-08-30T16:09:33.435Z,56.90
2022-08-30T16:12:02.378Z,56.20
2022-08-30T16:14:34.364Z,55.90
2022-08-30T16:17:05.056Z,56.10
2022-08-30T16:19:34.290Z,56.40
2022-08-30T16:22:03.168Z,55.20
2022-08-30T16:24:32.206Z,56.40
2022-08-30T16:27:02.024Z,58.40
2022-08-30T16:29:30.912Z,58.80
2022-08-30T16:31:59.485Z,59.70
2022-08-30T16:34:29.498Z,58.90
2022-08-30T16:37:02.334Z,60.30
2022-08-30T16:39:31.010Z,58.80
2022-08-30T16:42:03.151Z,57.80
2022-08-30T16:44:32.114Z,56.90
2022-08-30T16:47:01.530Z,55.80
2022-08-30T16:49:31.558Z,55.40
2022-08-30T16:52:00.328Z,54.90
2022-08-30T16:54:29.385Z,54.50
2022-08-30T16:56:58.332Z,54.10
2022-08-30T16:59:27.451Z,53.60
2022-08-30T17:01:57.012Z,53.70
2022-08-30T17:04:25.876Z,52.70
2022-08-30T17:06:56.648Z,52.90
2022-08-30T17:09:27.631Z,52.80
2022-08-30T17:11:56.596Z,52.50
2022-08-30T17:14:27.927Z,52.10
2022-08-30T17:17:00.323Z,51.80
2022-08-30T17:19:30.064Z,51.80
2022-08-30T17:22:01.115Z,51.90
2022-08-30T17:24:29.922Z,51.50
2022-08-30T17:26:59.111Z,52.60
2022-08-30T17:29:28.403Z,51.80
2022-08-30T17:31:58.303Z,52.50
2022-08-30T17:34:28.707Z,53.60
2022-08-30T17:37:00.022Z,54.90
2022-08-30T17:39:30.889Z,55.70
2022-08-30T17:42:00.825Z,55.30
2022-08-30T17:44:32.703Z,55.00
2022-08-30T17:47:02.181Z,55.90
2022-08-30T17:49:33.517Z,55.60
2022-08-30T17:52:04.648Z,56.30
2022-08-30T17:54:35.905Z,58.10
2022-08-30T17:57:10.652Z,59.00
2022-08-30T17:59:40.507Z,58.10
2022-08-30T18:02:11.193Z,56.90
2022-08-30T18:04:41.800Z,56.10
2022-08-30T18:07:11.757Z,56.60
2022-08-30T18:09:42.349Z,55.40
2022-08-30T18:12:12.871Z,55.30
2022-08-30T18:14:42.865Z,55.50
2022-08-30T18:17:11.789Z,55.30
2022-08-30T18:19:46.380Z,55.60
2022-08-30T18:22:16.939Z,55.80
2022-08-30T18:24:47.867Z,55.60
2022-08-30T18:27:16.573Z,56.60
2022-08-30T18:29:45.199Z,58.00
2022-08-30T18:32:14.104Z,58.90
2022-08-30T18:34:43.821Z,57.20
2022-08-30T18:37:13.891Z,56.60
2022-08-30T18:39:48.417Z,57.30
2022-08-30T18:42:19.140Z,58.10
2022-08-30T18:44:49.763Z,57.30
2022-08-30T18:47:18.501Z,58.10
2022-08-30T18:49:55.107Z,57.70
2022-08-30T18:52:25.315Z,57.30
2022-08-30T18:54:56.135Z,57.20
2022-08-30T18:57:27.558Z,56.60
2022-08-30T18:59:57.041Z,56.10
2022-08-30T19:02:27.656Z,57.00
2022-08-30T19:04:56.695Z,56.80
2022-08-30T19:07:28.923Z,56.60
2022-08-30T19:10:04.619Z,56.80
2022-08-30T19:12:33.409Z,56.90
2022-08-30T19:15:02.254Z,57.50
2022-08-30T19:17:43.633Z,57.90
2022-08-30T19:20:15.676Z,57.60
2022-08-30T19:23:09.207Z,57.20
2022-08-30T19:25:34.523Z,57.90
2022-08-30T19:28:03.893Z,58.20
2022-08-30T19:30:35.464Z,58.70
2022-08-30T19:33:04.498Z,59.80
2022-08-30T19:35:34.776Z,59.50
2022-08-30T19:38:03.431Z,59.60
2022-08-30T19:40:34.606Z,59.50
2022-08-30T19:43:04.660Z,59.70
2022-08-30T19:45:34.431Z,58.80
2022-08-30T19:48:03.658Z,58.50
2022-08-30T19:50:32.951Z,58.40
2022-08-30T19:53:02.094Z,58.00
2022-08-30T19:55:31.475Z,57.70
2022-08-30T19:58:02.018Z,57.70
2022-08-30T20:00:31.764Z,57.40
2022-08-30T20:03:01.862Z,57.40
2022-08-30T20:05:32.051Z,57.50
2022-08-30T20:08:01.390Z,57.70
2022-08-30T20:10:30.254Z,57.10
2022-08-30T20:13:01.317Z,56.80
2022-08-30T20:15:30.340Z,56.30
2022-08-30T20:20:49.807Z,56.20
2022-08-30T20:23:21.787Z,55.00
2022-08-30T20:25:54.497Z,55.50
2022-08-30T20:28:26.226Z,57.10
2022-08-30T20:30:55.701Z,58.40
2022-08-30T20:33:27.508Z,58.90
2022-08-30T20:35:56.350Z,58.80
2022-08-30T20:38:25.334Z,58.30
2022-08-30T20:40:58.651Z,57.70
2022-08-30T20:43:31.572Z,58.40
2022-08-30T20:46:00.308Z,58.20
2022-08-30T20:48:31.478Z,58.30
2022-08-30T20:51:00.109Z,58.00
2022-08-30T20:53:28.847Z,58.30
2022-08-30T20:55:57.613Z,57.90
2022-08-30T20:58:26.277Z,57.60
2022-08-30T21:00:56.808Z,57.40
2022-08-30T21:03:27.589Z,57.20
2022-08-30T21:05:57.262Z,57.30
2022-08-30T21:08:26.436Z,58.10
2022-08-30T21:10:56.506Z,58.20
2022-08-30T21:13:25.420Z,58.40
2022-08-30T21:16:00.670Z,58.10
2022-08-30T21:18:34.433Z,58.30
2022-08-30T21:21:11.084Z,58.20
2022-08-30T21:23:40.313Z,58.60
2022-08-30T21:26:10.997Z,59.00
2022-08-30T21:28:40.371Z,59.50
2022-08-30T21:31:14.303Z,59.60
2022-08-30T21:33:44.269Z,60.50
2022-08-30T21:36:30.539Z,59.90
2022-08-30T21:39:00.763Z,59.40
2022-08-30T21:41:31.647Z,58.90
2022-08-30T21:44:05.385Z,58.80
2022-08-30T21:46:37.287Z,58.60
2022-08-30T21:49:09.689Z,58.50
2022-08-30T21:51:43.256Z,58.30
2022-08-30T21:54:14.139Z,58.10
2022-08-30T21:56:48.193Z,57.90
2022-08-30T21:59:18.414Z,58.10
2022-08-30T22:01:49.554Z,58.30
2022-08-30T22:04:20.904Z,58.00
2022-08-30T22:06:53.858Z,57.80
2022-08-30T22:09:25.832Z,58.50
2022-08-30T22:11:55.728Z,58.30
2022-08-30T22:14:26.570Z,58.70
2022-08-30T22:16:57.753Z,58.40
2022-08-30T22:19:26.901Z,57.90
2022-08-30T22:22:01.764Z,57.50
2022-08-30T22:24:32.475Z,57.00
2022-08-30T22:27:05.153Z,56.70
2022-08-30T22:29:34.774Z,56.80
2022-08-30T22:32:06.515Z,56.70
2022-08-30T22:34:35.695Z,56.30
2022-08-30T22:37:05.448Z,56.10
2022-08-30T22:39:34.508Z,56.00
2022-08-30T22:42:03.583Z,55.80
2022-08-30T22:44:32.934Z,55.50
2022-08-30T22:47:04.129Z,55.50
2022-08-30T22:49:33.471Z,55.40
2022-08-30T22:52:02.655Z,55.30
2022-08-30T22:54:33.244Z,55.30
2022-08-30T22:57:04.499Z,55.30
2022-08-30T22:59:34.037Z,55.60
2022-08-30T23:02:04.925Z,55.50
2022-08-30T23:04:34.290Z,55.70
2022-08-30T23:07:03.928Z,55.60
2022-08-30T23:09:32.570Z,55.60
2022-08-30T23:12:01.241Z,55.30
2022-08-30T23:14:30.065Z,55.20
2022-08-30T23:16:58.787Z,55.00
2022-08-30T23:19:28.833Z,55.10
2022-08-30T23:21:57.629Z,55.10
2022-08-30T23:24:46.283Z,54.90
2022-08-30T23:27:36.372Z,54.90
2022-08-30T23:30:23.459Z,54.70
2022-08-30T23:33:09.710Z,54.60
2022-08-30T23:35:57.383Z,54.60
2022-08-30T23:38:44.001Z,54.60
2022-08-30T23:41:33.810Z,54.70
2022-08-30T23:44:20.131Z,54.60
2022-08-30T23:47:06.479Z,54.60
2022-08-30T23:49:52.592Z,54.80
2022-08-30T23:52:40.228Z,54.80
2022-08-30T23:55:27.425Z,55.50
2022-08-30T23:58:13.660Z,54.90
